createdAt,value
2018-01-17T00:01:38.828Z,3.26
2018-01-17T00:04:07.117Z,3.17
2018-01-17T00:06:35.371Z,3.18
2018-01-17T00:09:03.669Z,3.15
2018-01-17T00:11:35.476Z,3.13
2018-01-17T00:14:04.764Z,3.17
2018-01-17T00:16:33.119Z,3.17
2018-01-17T00:19:01.396Z,3.11
2018-01-17T00:21:31.048Z,3.07
2018-01-17T00:23:59.321Z,3.22
2018-01-17T00:26:27.825Z,3.24
2018-01-17T00:28:56.317Z,3.28
2018-01-17T00:31:25.580Z,3.20
2018-01-17T00:33:54.028Z,3.23
2018-01-17T00:36:22.428Z,3.20
2018-01-17T00:38:51.685Z,3.34
2018-01-17T00:41:24.645Z,3.30
2018-01-17T00:43:53.044Z,3.36
2018-01-17T00:46:21.401Z,3.28
2018-01-17T00:48:49.784Z,3.36
2018-01-17T00:51:20.041Z,3.41
2018-01-17T00:53:48.424Z,3.38
2018-01-17T00:56:17.060Z,3.33
2018-01-17T00:58:49.787Z,3.42
2018-01-17T01:01:20.334Z,3.35
2018-01-17T01:03:48.698Z,3.30
2018-01-17T01:06:18.888Z,3.33
2018-01-17T01:08:47.304Z,3.42
2018-01-17T01:11:15.650Z,3.38
2018-01-17T01:13:44.075Z,3.41
2018-01-17T01:16:12.400Z,3.47
2018-01-17T01:18:40.790Z,3.38
2018-01-17T01:21:09.213Z,3.31
2018-01-17T01:23:39.423Z,3.37
2018-01-17T01:26:07.797Z,3.40
2018-01-17T01:28:36.144Z,3.37
2018-01-17T01:31:04.532Z,3.35
2018-01-17T01:33:34.792Z,3.38
2018-01-17T01:36:07.126Z,3.35
2018-01-17T01:38:35.884Z,3.48
2018-01-17T01:41:05.144Z,3.40
2018-01-17T01:43:35.708Z,3.45
2018-01-17T01:46:06.229Z,3.37
2018-01-17T01:48:34.594Z,3.47
2018-01-17T01:51:04.823Z,3.53
2018-01-17T01:53:33.172Z,3.46
2018-01-17T01:56:01.566Z,3.61
2018-01-17T01:58:29.973Z,3.58
2018-01-17T02:00:58.299Z,3.73
2018-01-17T02:03:26.699Z,3.84
2018-01-17T02:05:55.066Z,3.88
2018-01-17T02:08:25.301Z,3.86
2018-01-17T02:10:53.713Z,3.88
2018-01-17T02:13:22.084Z,3.90
2018-01-17T02:15:50.446Z,3.96
2018-01-17T02:18:18.844Z,3.97
2018-01-17T02:20:47.755Z,3.97
2018-01-17T02:23:16.221Z,3.99
2018-01-17T02:25:44.572Z,3.95
2018-01-17T02:28:13.419Z,3.93
2018-01-17T02:30:41.691Z,3.98
2018-01-17T02:33:10.009Z,3.97
2018-01-17T02:35:38.412Z,4.04
2018-01-17T02:38:06.766Z,4.00
2018-01-17T02:40:41.076Z,3.98
2018-01-17T02:43:09.376Z,4.00
2018-01-17T02:45:41.503Z,4.03
2018-01-17T02:48:10.762Z,4.05
2018-01-17T02:50:39.129Z,4.08
2018-01-17T02:53:07.557Z,4.09
2018-01-17T02:55:36.794Z,4.09
2018-01-17T02:58:08.589Z,4.03
2018-01-17T03:00:36.944Z,4.03
2018-01-17T03:03:05.344Z,4.02
2018-01-17T03:05:35.572Z,4.02
2018-01-17T03:08:03.949Z,3.99
2018-01-17T03:10:32.235Z,3.97
2018-01-17T03:13:00.551Z,3.95
2018-01-17T03:15:29.981Z,3.94
2018-01-17T03:17:58.267Z,3.86
2018-01-17T03:20:26.533Z,3.77
2018-01-17T03:22:54.861Z,3.83
2018-01-17T03:25:23.173Z,3.75
2018-01-17T03:27:51.448Z,3.71
2018-01-17T03:30:20.888Z,3.68
2018-01-17T03:32:49.183Z,3.74
2018-01-17T03:35:17.451Z,3.73
2018-01-17T03:37:45.704Z,3.82
2018-01-17T03:40:14.543Z,3.82
2018-01-17T03:42:42.831Z,3.80
2018-01-17T03:45:11.102Z,3.83
2018-01-17T03:47:39.407Z,3.82
2018-01-17T03:50:08.834Z,3.85
2018-01-17T03:52:37.136Z,3.87
2018-01-17T03:55:05.420Z,3.88
2018-01-17T03:57:33.708Z,3.88
2018-01-17T04:00:01.996Z,3.86
2018-01-17T04:02:30.250Z,3.88
2018-01-17T04:04:58.539Z,3.90
2018-01-17T04:07:27.209Z,3.91
2018-01-17T04:09:55.900Z,3.87
2018-01-17T04:12:24.185Z,3.91
2018-01-17T05:17:02.114Z,3.57
2018-01-17T05:19:30.366Z,3.62
2018-01-17T05:21:58.630Z,3.67
2018-01-17T05:24:27.651Z,3.69
2018-01-17T05:26:55.899Z,3.70
2018-01-17T05:29:24.940Z,3.65
2018-01-17T05:31:53.199Z,3.67
2018-01-17T05:34:21.463Z,3.65
2018-01-17T05:36:50.497Z,3.64
2018-01-17T05:39:18.748Z,3.64
2018-01-17T05:41:47.020Z,3.64
2018-01-17T05:44:17.171Z,3.63
2018-01-17T05:46:45.417Z,3.62
2018-01-17T05:49:13.699Z,3.68
2018-01-17T05:51:41.952Z,3.67
2018-01-17T05:54:11.021Z,3.66
2018-01-17T05:56:39.272Z,3.59
2018-01-17T05:59:07.515Z,3.62
2018-01-17T06:01:35.797Z,3.62
2018-01-17T06:04:04.810Z,3.62
2018-01-17T06:06:33.083Z,3.63
2018-01-17T06:09:01.486Z,3.64
2018-01-17T06:11:30.517Z,3.51
2018-01-17T06:13:58.816Z,3.50
2018-01-17T06:16:27.086Z,3.50
2018-01-17T06:18:56.538Z,3.48
2018-01-17T06:21:24.791Z,3.47
2018-01-17T06:23:53.034Z,3.49
2018-01-17T06:26:22.079Z,3.51
2018-01-17T06:28:50.354Z,3.45
2018-01-17T06:31:18.938Z,3.44
2018-01-17T06:33:47.177Z,3.39
2018-01-17T06:36:16.202Z,3.42
2018-01-17T06:38:44.463Z,3.44
2018-01-17T06:41:12.724Z,3.49
2018-01-17T06:43:42.181Z,3.46
2018-01-17T06:46:10.839Z,3.35
2018-01-17T06:48:39.110Z,3.24
2018-01-17T06:51:08.137Z,2.94
2018-01-17T06:53:36.409Z,2.84
2018-01-17T06:56:04.683Z,2.85
2018-01-17T06:58:32.955Z,2.73
2018-01-17T07:01:02.143Z,2.81
2018-01-17T07:03:32.350Z,2.87
2018-01-17T07:06:01.377Z,2.88
2018-01-17T07:08:29.629Z,2.98
2018-01-17T07:10:58.664Z,3.03
2018-01-17T07:13:26.906Z,3.00
2018-01-17T07:15:55.198Z,3.09
2018-01-17T07:18:23.441Z,3.13
2018-01-17T07:20:52.476Z,3.20
2018-01-17T07:23:20.760Z,3.21
2018-01-17T07:25:49.014Z,3.20
2018-01-17T07:28:17.363Z,3.20
2018-01-17T07:30:45.615Z,3.23
2018-01-17T07:33:13.874Z,3.27
2018-01-17T07:35:42.146Z,3.24
2018-01-17T07:38:10.400Z,3.17
2018-01-17T07:40:38.692Z,3.17
2018-01-17T07:43:06.965Z,3.18
2018-01-17T07:45:35.205Z,3.22
2018-01-17T07:48:03.479Z,3.23
2018-01-17T07:50:31.723Z,3.21
2018-01-17T07:53:00.000Z,3.17
2018-01-17T07:55:28.259Z,3.19
2018-01-17T07:57:56.496Z,3.24
2018-01-17T08:00:25.531Z,3.23
2018-01-17T08:02:53.971Z,3.24
2018-01-17T08:05:22.235Z,3.32
2018-01-17T08:07:50.516Z,3.23
2018-01-17T08:10:18.775Z,3.20
2018-01-17T08:12:47.075Z,3.14
2018-01-17T08:15:15.333Z,3.17
2018-01-17T08:17:43.628Z,3.15
2018-01-17T08:20:11.893Z,3.14
2018-01-17T08:22:40.142Z,3.15
2018-01-17T08:25:08.886Z,3.07
2018-01-17T08:27:37.250Z,3.15
2018-01-17T08:30:05.931Z,3.11
2018-01-17T08:32:34.748Z,3.22
2018-01-17T08:35:04.354Z,3.24
2018-01-17T08:37:32.690Z,3.24
2018-01-17T08:40:01.702Z,3.33
2018-01-17T08:42:29.973Z,3.30
2018-01-17T08:44:58.221Z,3.30
2018-01-17T08:47:26.478Z,3.35
2018-01-17T08:49:55.508Z,3.32
2018-01-17T08:52:23.768Z,3.30
2018-01-17T08:54:53.050Z,3.32
2018-01-17T08:57:21.310Z,3.29
2018-01-17T08:59:50.340Z,3.30
2018-01-17T09:02:18.597Z,3.39
2018-01-17T09:04:47.630Z,3.40
2018-01-17T09:07:15.907Z,3.43
2018-01-17T09:09:44.155Z,3.44
2018-01-17T09:14:45.959Z,3.46
2018-01-17T09:17:14.205Z,3.53
2018-01-17T09:19:43.554Z,3.57
2018-01-17T09:22:11.806Z,3.58
2018-01-17T09:24:40.067Z,3.64
2018-01-17T09:27:08.372Z,3.61
2018-01-17T09:29:36.649Z,3.68
2018-01-17T09:32:05.172Z,3.70
2018-01-17T09:34:33.424Z,3.69
2018-01-17T09:37:01.678Z,3.70
2018-01-17T09:39:29.933Z,3.70
2018-01-17T09:41:58.196Z,3.69
2018-01-17T09:44:27.521Z,3.68
2018-01-17T09:46:55.797Z,3.71
2018-01-17T09:49:24.071Z,3.65
2018-01-17T09:51:53.104Z,3.73
2018-01-17T09:54:21.450Z,3.79
2018-01-17T09:56:49.734Z,3.85
2018-01-17T09:59:17.977Z,3.96
2018-01-17T10:01:47.016Z,4.08
2018-01-17T10:04:15.291Z,4.07
2018-01-17T10:06:43.529Z,4.09
2018-01-17T10:09:12.763Z,4.08
2018-01-17T10:11:45.159Z,4.15
2018-01-17T10:14:13.394Z,4.14
2018-01-17T10:16:42.434Z,3.99
2018-01-17T10:19:10.699Z,4.06
2018-01-17T10:21:38.950Z,4.07
2018-01-17T10:24:07.952Z,4.02
2018-01-17T10:26:36.746Z,4.00
2018-01-17T10:29:05.755Z,3.97
2018-01-17T10:31:34.009Z,3.97
2018-01-17T10:34:02.279Z,3.92
2018-01-17T10:39:25.439Z,3.98
2018-01-17T10:41:53.702Z,4.02
2018-01-17T10:44:21.965Z,4.11
2018-01-17T10:46:50.212Z,4.07
2018-01-17T10:49:18.533Z,4.05
2018-01-17T10:51:46.789Z,4.03
2018-01-17T10:54:15.055Z,4.07
2018-01-17T10:56:43.315Z,4.12
2018-01-17T10:59:12.015Z,4.17
2018-01-17T11:01:40.291Z,4.24
2018-01-17T11:04:08.567Z,4.26
2018-01-17T11:06:36.833Z,4.30
2018-01-17T11:09:05.085Z,4.37
2018-01-17T11:11:34.146Z,4.41
2018-01-17T11:14:02.478Z,4.43
2018-01-17T11:16:30.752Z,4.42
2018-01-17T11:18:59.817Z,4.39
2018-01-17T11:21:28.067Z,4.48
2018-01-17T11:23:56.750Z,4.50
2018-01-17T11:26:25.123Z,4.45
2018-01-17T11:28:53.394Z,4.46
2018-01-17T11:31:21.674Z,4.44
2018-01-17T11:33:49.928Z,4.45
2018-01-17T11:36:18.946Z,4.50
2018-01-17T11:38:47.224Z,4.49
2018-01-17T11:41:15.483Z,4.53
2018-01-17T11:43:43.756Z,4.55
2018-01-17T11:46:12.784Z,4.56
2018-01-17T11:48:41.047Z,4.58
2018-01-17T11:51:09.331Z,4.64
2018-01-17T11:53:37.599Z,4.72
2018-01-17T11:56:05.917Z,4.78
2018-01-17T11:58:34.176Z,4.84
2018-01-17T12:01:02.435Z,4.83
2018-01-17T12:03:31.394Z,4.82
2018-01-17T12:05:59.754Z,4.80
2018-01-17T12:08:27.959Z,4.88
2018-01-17T12:10:56.995Z,4.90
2018-01-17T12:13:25.242Z,4.94
2018-01-17T12:15:53.505Z,4.95
2018-01-17T12:18:22.542Z,4.87
2018-01-17T12:20:50.790Z,4.77
2018-01-17T12:23:19.825Z,4.77
2018-01-17T12:25:48.095Z,4.80
2018-01-17T12:28:16.362Z,4.76
2018-01-17T12:30:44.619Z,4.78
2018-01-17T12:33:12.892Z,4.82
2018-01-17T12:35:41.914Z,4.83
2018-01-17T12:38:10.161Z,4.87
2018-01-17T12:40:39.255Z,4.85
2018-01-17T12:43:08.280Z,4.76
2018-01-17T12:45:36.528Z,4.75
2018-01-17T12:48:05.572Z,4.73
2018-01-17T12:50:33.851Z,4.75
2018-01-17T12:53:02.123Z,4.76
2018-01-17T12:55:30.374Z,4.82
2018-01-17T12:57:58.627Z,4.81
2018-01-17T13:00:27.668Z,4.80
2018-01-17T13:02:55.930Z,4.87
2018-01-17T13:05:24.177Z,4.94
2018-01-17T13:07:52.456Z,4.94
2018-01-17T13:10:21.459Z,4.90
2018-01-17T13:12:50.477Z,4.91
2018-01-17T13:15:19.605Z,4.83
2018-01-17T13:17:47.888Z,4.82
2018-01-17T13:20:16.140Z,4.85
2018-01-17T13:22:44.586Z,4.85
2018-01-17T13:25:13.614Z,4.90
2018-01-17T13:27:41.898Z,4.86
2018-01-17T13:30:10.172Z,4.90
2018-01-17T13:32:38.431Z,4.90
2018-01-17T13:35:06.676Z,4.93
2018-01-17T13:37:34.951Z,5.02
2018-01-17T13:40:03.212Z,4.97
2018-01-17T14:03:09.601Z,5.21
2018-01-17T14:46:49.301Z,5.05
2018-01-17T14:49:17.943Z,5.04
2018-01-17T14:51:46.216Z,5.12
2018-01-17T14:54:14.480Z,5.03
2018-01-17T14:56:42.737Z,5.03
2018-01-17T14:59:11.022Z,4.95
2018-01-17T15:01:39.307Z,4.97
2018-01-17T15:04:07.572Z,5.08
2018-01-17T15:06:35.839Z,4.98
2018-01-17T15:09:04.107Z,4.87
2018-01-17T15:11:32.419Z,4.89
2018-01-17T15:14:00.681Z,4.89
2018-01-17T15:16:28.953Z,4.80
2018-01-17T15:18:57.986Z,4.83
2018-01-17T15:21:26.265Z,4.88
2018-01-17T15:23:54.522Z,4.82
2018-01-17T15:26:22.805Z,4.77
2018-01-17T15:28:51.101Z,4.73
2018-01-17T15:31:19.386Z,4.76
2018-01-17T15:33:47.660Z,4.77
2018-01-17T15:36:15.925Z,4.76
2018-01-17T15:38:44.324Z,4.71
2018-01-17T15:41:13.429Z,4.64
2018-01-17T15:43:41.719Z,4.71
2018-01-17T15:46:09.978Z,4.69
2018-01-17T15:48:38.262Z,4.61
2018-01-17T16:05:53.290Z,4.60
2018-01-17T16:08:21.581Z,4.64
2018-01-17T16:10:49.828Z,4.61
2018-01-17T16:13:18.882Z,4.63
2018-01-17T16:15:47.568Z,4.65
2018-01-17T16:18:15.851Z,4.66
2018-01-17T16:20:44.671Z,4.60
2018-01-17T16:23:12.931Z,4.54
2018-01-17T16:25:41.201Z,4.56
2018-01-17T16:28:09.510Z,4.64
2018-01-17T16:30:37.773Z,4.67
2018-01-17T16:33:06.043Z,4.65
2018-01-17T16:35:34.336Z,4.65
2018-01-17T16:38:02.601Z,4.66
2018-01-17T16:40:31.673Z,4.72
2018-01-17T16:42:59.965Z,4.74
2018-01-17T16:45:28.249Z,4.71
2018-01-17T16:47:56.521Z,4.70
2018-01-17T16:50:25.165Z,4.72
2018-01-17T16:52:53.457Z,4.69
2018-01-17T16:55:21.726Z,4.70
2018-01-17T16:57:49.996Z,4.76
2018-01-17T17:00:18.276Z,4.77
2018-01-17T17:02:46.568Z,4.72
2018-01-17T17:05:14.856Z,4.67
2018-01-17T17:07:43.104Z,4.68
2018-01-17T17:10:11.396Z,4.59
2018-01-17T17:12:39.663Z,4.55
2018-01-17T17:15:07.969Z,4.56
2018-01-17T17:17:36.225Z,4.51
2018-01-17T17:20:05.479Z,4.53
2018-01-17T17:22:34.490Z,4.60
2018-01-17T17:25:02.870Z,4.54
2018-01-17T17:27:33.058Z,4.59
2018-01-17T17:30:01.347Z,4.57
2018-01-17T17:32:29.610Z,4.54
2018-01-17T17:34:57.868Z,4.56
2018-01-17T17:37:26.162Z,4.52
2018-01-17T17:39:54.438Z,4.54
2018-01-17T17:42:22.710Z,4.51
2018-01-17T17:44:50.983Z,4.48
2018-01-17T17:47:19.244Z,4.42
2018-01-17T17:49:48.436Z,4.47
2018-01-17T17:52:16.721Z,4.41
2018-01-17T17:54:45.011Z,4.40
2018-01-17T17:57:13.268Z,4.42
2018-01-17T17:59:41.555Z,4.42
2018-01-17T18:02:09.860Z,4.37
2018-01-17T18:04:38.146Z,4.41
2018-01-17T18:07:06.442Z,4.37
2018-01-17T18:09:34.737Z,4.38
2018-01-17T18:12:03.022Z,4.40
2018-01-17T18:14:32.807Z,4.36
2018-01-17T18:17:01.086Z,4.36
2018-01-17T18:19:29.367Z,4.33
2018-01-17T18:21:57.704Z,4.34
2018-01-17T18:24:25.971Z,4.28
2018-01-17T18:26:54.278Z,4.35
2018-01-17T18:29:22.556Z,4.36
2018-01-17T18:31:50.882Z,4.35
2018-01-17T18:34:19.894Z,4.35
2018-01-17T18:36:48.191Z,4.39
2018-01-17T18:39:16.473Z,4.39
2018-01-17T18:41:44.773Z,4.38
2018-01-17T18:44:13.053Z,4.36
2018-01-17T18:46:41.322Z,4.38
2018-01-17T18:49:09.600Z,4.33
2018-01-17T18:51:37.876Z,4.30
2018-01-17T18:54:06.993Z,4.33
2018-01-17T18:56:35.448Z,4.37
2018-01-17T18:59:03.774Z,4.33
2018-01-17T19:01:32.072Z,4.25
2018-01-17T19:04:01.603Z,4.33
2018-01-17T19:06:30.087Z,4.36
2018-01-17T19:08:58.497Z,4.18
2018-01-17T19:11:36.667Z,4.27
2018-01-17T19:14:05.198Z,4.26
2018-01-17T19:16:33.468Z,4.19
2018-01-17T19:19:01.812Z,4.19
2018-01-17T19:21:30.222Z,4.14
2018-01-17T19:23:58.599Z,4.13
2018-01-17T19:26:26.974Z,4.08
2018-01-17T19:28:55.373Z,4.14
2018-01-17T19:31:27.381Z,4.12
2018-01-17T19:33:55.807Z,4.17
2018-01-17T19:36:24.176Z,4.17
2018-01-17T19:38:52.544Z,4.20
2018-01-17T19:41:20.957Z,4.26
2018-01-17T19:43:50.271Z,4.21
2018-01-17T19:46:18.659Z,4.25
2018-01-17T19:48:47.009Z,4.24
2018-01-17T19:51:15.369Z,4.20
2018-01-17T19:53:43.776Z,4.25
2018-01-17T19:56:12.166Z,4.32
2018-01-17T19:58:40.540Z,4.36
2018-01-17T20:01:08.908Z,4.43
2018-01-17T20:03:37.272Z,4.46
2018-01-17T20:06:05.684Z,4.43
2018-01-17T20:08:34.055Z,4.44
2018-01-17T20:11:02.437Z,4.44
2018-01-17T20:13:30.787Z,4.48
2018-01-17T20:15:59.048Z,4.49
2018-01-17T20:18:28.505Z,4.48
2018-01-17T20:20:56.876Z,4.49
2018-01-17T20:23:25.324Z,4.41
2018-01-17T20:25:53.632Z,4.46
2018-01-17T20:28:22.023Z,4.37
2018-01-17T20:30:50.385Z,4.39
2018-01-17T20:33:18.748Z,4.31
2018-01-17T20:35:47.157Z,4.35
2018-01-17T20:38:15.529Z,4.35
2018-01-17T20:40:43.916Z,4.39
2018-01-17T20:43:12.298Z,4.38
2018-01-17T20:45:40.665Z,4.40
2018-01-17T20:48:09.088Z,4.33
2018-01-17T20:50:37.411Z,4.39
2018-01-17T20:53:05.821Z,4.38
2018-01-17T20:55:34.220Z,4.38
2018-01-17T20:58:02.580Z,4.33
2018-01-17T21:00:31.945Z,4.25
2018-01-17T21:03:00.261Z,4.20
2018-01-17T21:05:28.638Z,4.23
2018-01-17T21:07:57.020Z,4.27
2018-01-17T21:10:25.397Z,4.22
2018-01-17T21:12:53.780Z,4.20
2018-01-17T21:15:22.140Z,4.18
2018-01-17T21:17:50.814Z,4.18
2018-01-17T21:20:19.217Z,4.13
2018-01-17T21:22:47.599Z,4.11
2018-01-17T21:25:15.979Z,4.13
2018-01-17T21:27:44.349Z,4.15
2018-01-17T21:30:12.738Z,4.19
2018-01-17T21:32:41.172Z,4.19
2018-01-17T21:35:10.422Z,4.23
2018-01-17T21:37:38.825Z,4.29
2018-01-17T21:40:07.196Z,4.33
2018-01-17T21:42:41.079Z,4.31
2018-01-17T21:45:15.820Z,4.37
2018-01-17T21:47:44.310Z,4.37
2018-01-17T21:50:12.678Z,4.39
2018-01-17T21:52:41.087Z,4.43
2018-01-17T21:55:09.443Z,4.40
2018-01-17T21:57:37.816Z,4.37
2018-01-17T22:00:08.060Z,4.37
2018-01-17T22:02:36.426Z,4.41
2018-01-17T22:05:04.804Z,4.41
2018-01-17T22:07:33.206Z,4.38
2018-01-17T22:10:01.561Z,4.39
2018-01-17T22:12:29.935Z,4.38
2018-01-17T22:14:58.325Z,4.37
2018-01-17T22:17:26.694Z,4.37
2018-01-17T22:19:55.095Z,4.29
2018-01-17T22:22:23.456Z,4.30
2018-01-17T22:24:51.847Z,4.33
2018-01-17T22:27:20.225Z,4.33
2018-01-17T22:29:48.592Z,4.31
2018-01-17T22:32:17.004Z,4.37
2018-01-17T22:34:45.337Z,4.32
2018-01-17T22:37:14.149Z,4.34
2018-01-17T22:39:42.439Z,4.34
2018-01-17T22:42:10.822Z,4.36
2018-01-17T22:44:39.580Z,4.27
2018-01-17T22:47:07.880Z,4.31
2018-01-17T22:49:36.263Z,4.32
2018-01-17T22:52:04.663Z,4.38
2018-01-17T22:54:33.011Z,4.32
2018-01-17T22:57:01.400Z,4.28
2018-01-17T22:59:31.628Z,4.30
2018-01-17T23:02:00.011Z,4.30
2018-01-17T23:04:28.379Z,4.29
2018-01-17T23:06:56.801Z,4.33
2018-01-17T23:09:25.136Z,4.27
2018-01-17T23:11:53.548Z,4.20
2018-01-17T23:14:21.892Z,4.27
2018-01-17T23:16:50.282Z,4.25
2018-01-17T23:19:18.683Z,4.28
2018-01-17T23:21:47.052Z,4.25
2018-01-17T23:24:15.449Z,4.21
2018-01-17T23:26:43.804Z,4.11
2018-01-17T23:29:13.120Z,4.17
2018-01-17T23:31:41.524Z,4.17
2018-01-17T23:34:09.874Z,4.03
2018-01-17T23:36:38.672Z,4.09
2018-01-17T23:39:06.954Z,4.12
2018-01-17T23:41:35.350Z,4.16
2018-01-17T23:44:03.706Z,4.09
2018-01-17T23:46:32.042Z,4.11
2018-01-17T23:49:00.461Z,4.05
2018-01-17T23:51:28.827Z,4.10
2018-01-17T23:53:57.197Z,4.01
2018-01-17T23:56:25.601Z,4.11
2018-01-17T23:58:54.889Z,4.10
